Time;durP1;ratioP1;P1;durP2;ratioP2;P2;SDS_P1;SDS_P2;PMS_P1;PMS_P2;Temp;Humidity;BMP_temperature;BMP_pressure;BME280_temperature;BME280_humidity;BME280_pressure;Samples;Min_cycle;Max_cycle;Signal;HPM_P1;HPM_P2
2024/01/19 00:02:02;;;;;;;0.40;0.40;;;;;;;10.02;100.00;93517.38;5030236;28;20223;-81
2024/01/19 00:04:29;;;;;;;0.10;0.10;;;;;;;9.92;100.00;93530.31;5028406;28;20260;-79
2024/01/19 00:06:56;;;;;;;0.20;0.20;;;;;;;10.10;100.00;93529.94;5030509;28;20669;-79
2024/01/19 00:09:23;;;;;;;0.20;0.20;;;;;;;10.10;100.00;93525.31;5030295;28;20567;-82
2024/01/19 00:11:50;;;;;;;0.25;0.25;;;;;;;10.10;100.00;93546.19;5032382;28;20660;-81
2024/01/19 00:14:17;;;;;;;0.52;0.52;;;;;;;10.09;100.00;93544.59;5031396;28;20201;-80
2024/01/19 00:16:44;;;;;;;0.20;0.20;;;;;;;9.77;100.00;93522.97;5034579;28;20258;-81
2024/01/19 00:19:14;;;;;;;0.30;0.30;;;;;;;9.99;100.00;93541.28;5036325;28;20201;-79
2024/01/19 00:21:44;;;;;;;0.20;0.20;;;;;;;10.04;100.00;93537.53;5034506;28;20239;-80
2024/01/19 00:24:12;;;;;;;0.40;0.40;;;;;;;10.06;100.00;93558.81;5031589;28;20215;-80
2024/01/19 00:26:38;;;;;;;0.40;0.40;;;;;;;10.10;100.00;93557.00;5034084;28;20571;-79
2024/01/19 00:29:06;;;;;;;0.20;0.20;;;;;;;10.08;100.00;93553.84;5033909;28;20252;-80
2024/01/19 00:31:35;;;;;;;0.35;0.35;;;;;;;9.87;100.00;93548.69;5034305;28;20201;-81
2024/01/19 00:34:02;;;;;;;0.30;0.30;;;;;;;9.86;100.00;93558.72;5033651;28;20227;-81
2024/01/19 00:36:32;;;;;;;0.30;0.30;;;;;;;9.88;100.00;93542.94;5033990;28;20575;-78
2024/01/19 00:39:00;;;;;;;3.30;1.08;;;;;;;9.80;100.00;93553.94;5034396;28;20196;-82
2024/01/19 00:41:27;;;;;;;0.47;0.47;;;;;;;9.96;100.00;93558.22;5033656;28;20200;-80
2024/01/19 00:43:53;;;;;;;0.28;0.28;;;;;;;9.82;100.00;93547.06;5033851;28;20204;-80
2024/01/19 00:46:20;;;;;;;0.40;0.40;;;;;;;9.63;100.00;93533.44;5033392;28;20221;-79
2024/01/19 00:48:47;;;;;;;0.70;0.70;;;;;;;9.67;100.00;93539.72;5033772;28;20205;-78
2024/01/19 00:51:15;;;;;;;0.40;0.40;;;;;;;9.68;100.00;93541.28;5033445;28;20223;-78
2024/01/19 00:53:44;;;;;;;1.85;1.75;;;;;;;9.84;100.00;93550.19;5033623;28;20198;-80
2024/01/19 00:56:11;;;;;;;0.25;0.25;;;;;;;9.60;100.00;93555.75;5030984;28;20548;-80
2024/01/19 00:58:40;;;;;;;0.40;0.40;;;;;;;9.66;100.00;93553.59;5033635;28;20204;-81
2024/01/19 01:01:08;;;;;;;0.20;0.20;;;;;;;9.88;100.00;93561.88;5033233;28;20209;-80
2024/01/19 01:03:34;;;;;;;0.47;0.47;;;;;;;9.94;100.00;93557.78;5033647;28;20291;-78
2024/01/19 01:06:03;;;;;;;0.10;0.10;;;;;;;9.90;100.00;93554.19;5031128;28;20204;-77
2024/01/19 01:08:30;;;;;;;0.40;0.40;;;;;;;9.93;100.00;93575.16;5033229;28;20208;-76
2024/01/19 01:10:58;;;;;;;0.20;0.20;;;;;;;10.06;100.00;93566.94;5033069;28;20224;-78
2024/01/19 01:13:26;;;;;;;0.40;0.40;;;;;;;9.64;100.00;93559.34;5032118;28;20576;-78
2024/01/19 01:15:52;;;;;;;0.43;0.43;;;;;;;9.96;100.00;93565.56;5032797;28;20209;-78
2024/01/19 01:18:22;;;;;;;0.50;0.50;;;;;;;9.87;100.00;93554.91;5033148;28;20201;-78
2024/01/19 01:20:50;;;;;;;0.20;0.20;;;;;;;9.65;100.00;93552.81;5032863;28;20203;-76
2024/01/19 01:23:17;;;;;;;0.50;0.50;;;;;;;10.02;100.00;93568.78;5033392;28;20227;-78
2024/01/19 01:25:46;;;;;;;1.95;1.85;;;;;;;9.73;100.00;93543.72;5032318;28;20577;-78
2024/01/19 01:28:14;;;;;;;1.33;1.25;;;;;;;9.64;100.00;93553.94;5014198;28;20200;-77
2024/01/19 01:30:47;;;;;;;0.57;0.57;;;;;;;9.89;100.00;93549.13;5032058;28;20282;-78
2024/01/19 01:33:13;;;;;;;1.20;0.65;;;;;;;9.86;100.00;93552.53;5030118;28;20247;-85
2024/01/19 01:35:40;;;;;;;0.20;0.20;;;;;;;10.15;100.00;93549.38;5032447;28;20197;-81
2024/01/19 01:38:07;;;;;;;0.20;0.20;;;;;;;9.88;100.00;93545.66;5033879;28;20585;-81
2024/01/19 01:40:34;;;;;;;0.20;0.20;;;;;;;9.82;100.00;93551.69;5033497;28;20232;-82
2024/01/19 01:43:03;;;;;;;0.57;0.57;;;;;;;9.98;100.00;93561.34;5034755;28;20200;-81
2024/01/19 01:45:31;;;;;;;0.20;0.20;;;;;;;9.65;100.00;93563.63;5034907;28;20201;-80
2024/01/19 01:48:05;;;;;;;0.50;0.50;;;;;;;9.58;100.00;93556.09;5037220;28;20216;-85
2024/01/19 01:50:32;;;;;;;0.77;0.40;;;;;;;9.58;100.00;93550.69;5039243;28;20228;-83
2024/01/19 01:52:59;;;;;;;0.73;0.73;;;;;;;9.61;100.00;93557.31;5038897;28;20207;-82
2024/01/19 01:55:26;;;;;;;0.38;0.38;;;;;;;9.72;100.00;93561.09;5040834;28;20223;-81
2024/01/19 01:57:53;;;;;;;0.30;0.30;;;;;;;9.65;100.00;93552.81;5039988;28;20575;-81
2024/01/19 02:00:20;;;;;;;0.30;0.30;;;;;;;9.80;100.00;93549.31;5037686;28;20216;-81
2024/01/19 02:02:49;;;;;;;0.60;0.60;;;;;;;9.97;100.00;93553.59;5035581;28;20862;-82
2024/01/19 02:05:16;;;;;;;0.30;0.30;;;;;;;9.96;100.00;93558.22;5038833;28;20219;-82
2024/01/19 02:07:43;;;;;;;0.20;0.20;;;;;;;9.79;100.00;93547.75;5040827;28;20204;-82
2024/01/19 02:10:10;;;;;;;0.40;0.38;;;;;;;9.84;100.00;93555.59;5037793;28;20229;-82
2024/01/19 02:12:38;;;;;;;0.85;0.85;;;;;;;9.96;100.00;93552.03;5036372;28;20209;-83
2024/01/19 02:15:05;;;;;;;0.50;0.50;;;;;;;10.16;100.00;93559.06;5037669;28;20208;-82
2024/01/19 02:17:32;;;;;;;0.38;0.38;;;;;;;9.47;100.00;93524.53;5037131;28;20213;-82
2024/01/19 02:20:00;;;;;;;0.40;0.40;;;;;;;9.71;100.00;93570.31;5034800;28;20204;-82
2024/01/19 02:22:30;;;;;;;0.50;0.50;;;;;;;9.71;100.00;93570.31;5034334;28;20258;-82
2024/01/19 02:24:58;;;;;;;0.30;0.30;;;;;;;9.64;100.00;93562.03;5031563;28;20228;-83
2024/01/19 02:27:26;;;;;;;0.30;0.30;;;;;;;9.33;100.00;93557.38;5032892;28;20215;-84
2024/01/19 02:29:53;;;;;;;0.47;0.47;;;;;;;9.46;100.00;93568.91;5032147;28;20598;-83
2024/01/19 02:32:19;;;;;;;0.20;0.20;;;;;;;9.52;100.00;93581.03;5031591;28;20228;-83
2024/01/19 02:34:46;;;;;;;0.28;0.28;;;;;;;9.34;100.00;93580.56;5032676;28;20209;-84
2024/01/19 02:37:14;;;;;;;0.13;0.13;;;;;;;9.49;100.00;93576.31;5031995;28;20627;-82
2024/01/19 02:39:41;;;;;;;0.10;0.10;;;;;;;9.62;100.00;93581.31;5033686;28;20216;-83
2024/01/19 02:42:09;;;;;;;0.45;0.45;;;;;;;9.56;100.00;93593.53;5036986;28;20941;-82
2024/01/19 02:44:36;;;;;;;0.10;0.10;;;;;;;9.49;100.00;93595.25;5035995;28;20550;-81
2024/01/19 02:47:04;;;;;;;0.30;0.30;;;;;;;9.42;100.00;93597.78;5035414;28;20216;-83
2024/01/19 02:49:30;;;;;;;0.22;0.22;;;;;;;9.35;100.00;93578.66;5046481;28;20211;-82
2024/01/19 02:51:57;;;;;;;0.20;0.20;;;;;;;9.52;100.00;93595.34;5037589;28;20229;-82
2024/01/19 02:54:24;;;;;;;0.20;0.20;;;;;;;9.71;100.00;93604.69;5038930;28;20196;-83
2024/01/19 02:56:53;;;;;;;0.10;0.10;;;;;;;9.75;100.00;93608.28;5037837;28;20247;-81
2024/01/19 02:59:21;;;;;;;0.10;0.10;;;;;;;9.65;100.00;93617.69;5032664;28;20250;-82
2024/01/19 03:01:48;;;;;;;0.20;0.20;;;;;;;9.54;100.00;93616.63;5035782;28;20196;-81
2024/01/19 03:04:14;;;;;;;0.30;0.30;;;;;;;9.39;100.00;93620.06;5034842;28;20218;-82
2024/01/19 03:06:41;;;;;;;0.50;0.50;;;;;;;9.18;100.00;93604.81;5033058;28;20204;-83
2024/01/19 03:09:08;;;;;;;0.20;0.20;;;;;;;9.47;100.00;93619.13;5034865;28;20220;-83
2024/01/19 03:11:35;;;;;;;0.45;0.45;;;;;;;9.56;100.00;93622.47;5036798;28;20577;-82
2024/01/19 03:14:02;;;;;;;1.08;0.55;;;;;;;9.49;100.00;93603.34;5033707;28;20204;-82
2024/01/19 03:16:30;;;;;;;0.20;0.20;;;;;;;9.78;100.00;93611.09;5034320;28;20196;-84
2024/01/19 03:19:00;;;;;;;0.40;0.40;;;;;;;9.67;100.00;93609.25;5034130;28;20204;-83
2024/01/19 03:21:28;;;;;;;0.20;0.20;;;;;;;9.47;100.00;93595.59;5032726;28;20208;-83
2024/01/19 03:23:55;;;;;;;0.68;0.68;;;;;;;9.42;100.00;93595.06;5032067;28;20235;-81
2024/01/19 03:26:21;;;;;;;1.30;1.27;;;;;;;9.32;100.00;93588.22;5032668;28;20212;-80
2024/01/19 03:28:48;;;;;;;0.20;0.20;;;;;;;9.37;100.00;93612.31;5032504;28;20211;-83
2024/01/19 03:31:15;;;;;;;0.10;0.10;;;;;;;9.16;100.00;93609.78;5033634;28;20228;-83
2024/01/19 03:33:43;;;;;;;0.25;0.25;;;;;;;8.96;100.00;93597.25;5033343;28;20235;-82
2024/01/19 03:36:10;;;;;;;0.20;0.20;;;;;;;8.93;100.00;93614.13;5034829;28;20220;-82
2024/01/19 03:38:37;;;;;;;0.22;0.22;;;;;;;8.99;100.00;93606.59;5031252;28;20196;-81
2024/01/19 03:41:04;;;;;;;0.20;0.20;;;;;;;8.89;100.00;93613.25;5031370;28;20204;-82
2024/01/19 03:43:33;;;;;;;0.60;0.60;;;;;;;9.03;100.00;93619.06;5031017;28;20201;-78
2024/01/19 03:46:00;;;;;;;0.40;0.40;;;;;;;8.78;100.00;93612.16;5029959;28;20208;-83
2024/01/19 03:48:27;;;;;;;0.20;0.20;;;;;;;9.03;100.00;93623.66;5024780;28;20204;-83
2024/01/19 03:50:55;;;;;;;0.20;0.20;;;;;;;9.26;100.00;93616.63;5036125;28;20224;-83
2024/01/19 03:53:23;;;;;;;1.92;0.40;;;;;;;8.90;100.00;93625.63;5037064;28;20754;-81
2024/01/19 03:55:50;;;;;;;0.20;0.20;;;;;;;9.05;100.00;93622.22;5018866;28;20627;-80
2024/01/19 03:58:17;;;;;;;0.35;0.35;;;;;;;8.91;100.00;93635.28;5034082;28;20200;-80
2024/01/19 04:00:43;;;;;;;0.22;0.22;;;;;;;9.04;100.00;93631.44;5037032;28;20203;-81
2024/01/19 04:03:10;;;;;;;0.20;0.20;;;;;;;8.89;100.00;93621.34;5040487;28;20200;-81
2024/01/19 04:05:40;;;;;;;0.20;0.20;;;;;;;9.23;100.00;93638.94;5039374;28;20212;-83
2024/01/19 04:08:08;;;;;;;1.67;1.25;;;;;;;9.14;100.00;93639.09;5036467;28;20215;-84
2024/01/19 04:10:35;;;;;;;0.55;0.55;;;;;;;9.11;100.00;93647.88;5039192;28;20274;-84
2024/01/19 04:13:01;;;;;;;0.43;0.43;;;;;;;9.03;100.00;93637.97;5036493;28;20250;-83
2024/01/19 04:15:28;;;;;;;0.20;0.20;;;;;;;10.23;100.00;93637.78;5035231;28;20625;-83
2024/01/19 04:17:56;;;;;;;0.15;0.15;;;;;;;10.87;100.00;93633.84;5031310;28;20200;-82
2024/01/19 04:20:24;;;;;;;0.20;0.20;;;;;;;11.70;100.00;93613.47;5034518;28;20212;-83
2024/01/19 04:22:51;;;;;;;0.20;0.20;;;;;;;11.59;100.00;93625.25;5035085;28;20208;-81
2024/01/19 04:25:21;;;;;;;0.20;0.20;;;;;;;10.26;100.00;93612.69;5036081;28;20212;-82
2024/01/19 04:27:48;;;;;;;0.20;0.20;;;;;;;9.93;100.00;93623.84;5036574;28;20218;-86
2024/01/19 04:30:15;;;;;;;0.55;0.32;;;;;;;9.67;100.00;93610.03;5037333;28;20208;-87
2024/01/19 04:32:42;;;;;;;0.20;0.20;;;;;;;9.38;100.00;93610.38;5034209;28;20232;-83
2024/01/19 04:35:09;;;;;;;0.20;0.20;;;;;;;9.52;100.00;93625.09;5034071;28;20196;-87
2024/01/19 04:37:36;;;;;;;0.60;0.60;;;;;;;9.60;100.00;93621.41;5034068;28;20215;-85
2024/01/19 04:40:02;;;;;;;0.40;0.40;;;;;;;9.56;100.00;93638.69;5033866;28;20210;-86
2024/01/19 04:42:31;;;;;;;0.38;0.38;;;;;;;9.34;100.00;93628.41;5034121;28;20530;-84
2024/01/19 04:44:57;;;;;;;0.20;0.20;;;;;;;9.18;100.00;93628.34;5034146;28;20197;-84
2024/01/19 04:47:24;;;;;;;0.20;0.20;;;;;;;9.29;100.00;93639.50;5030870;28;20231;-82
2024/01/19 04:49:51;;;;;;;0.20;0.20;;;;;;;9.29;100.00;93642.19;5031321;28;20211;-85
2024/01/19 04:52:18;;;;;;;0.47;0.45;;;;;;;9.14;100.00;93636.38;5033202;28;20228;-85
2024/01/19 04:54:44;;;;;;;0.20;0.20;;;;;;;9.26;100.00;93630.94;5033812;28;20204;-85
2024/01/19 04:57:11;;;;;;;0.32;0.32;;;;;;;8.87;100.00;93620.91;5031332;28;20204;-83
2024/01/19 04:59:39;;;;;;;0.20;0.20;;;;;;;8.98;100.00;93638.22;5034667;28;20201;-82
2024/01/19 05:02:09;;;;;;;0.20;0.20;;;;;;;8.92;100.00;93634.16;5036284;28;20265;-83
2024/01/19 05:04:35;;;;;;;0.30;0.30;;;;;;;8.94;100.00;93647.34;5041292;28;20208;-87
2024/01/19 05:07:02;;;;;;;0.20;0.20;;;;;;;8.96;100.00;93639.69;5034311;28;20226;-86
2024/01/19 05:09:29;;;;;;;0.20;0.20;;;;;;;9.12;100.00;93637.84;5034383;28;20645;-85
2024/01/19 05:11:56;;;;;;;0.15;0.15;;;;;;;9.29;100.00;93642.97;5053452;28;20601;-85
2024/01/19 05:14:23;;;;;;;0.20;0.20;;;;;;;9.24;100.00;93635.88;5044819;28;20572;-84
2024/01/19 05:16:51;;;;;;;0.20;0.20;;;;;;;9.12;100.00;93649.44;5036131;28;20208;-83
2024/01/19 05:19:18;;;;;;;0.20;0.20;;;;;;;9.14;100.00;93652.59;5032963;28;20208;-82
2024/01/19 05:21:45;;;;;;;0.20;0.20;;;;;;;9.02;100.00;93641.78;5033365;28;20693;-84
2024/01/19 05:24:11;;;;;;;0.30;0.30;;;;;;;9.04;100.00;93653.03;5033160;28;20212;-83
2024/01/19 05:26:38;;;;;;;0.30;0.30;;;;;;;9.25;100.00;93664.47;5032303;28;20708;-83
2024/01/19 05:29:05;;;;;;;1.15;1.15;;;;;;;9.21;100.00;93658.19;5032617;28;20530;-83
2024/01/19 05:31:32;;;;;;;0.30;0.30;;;;;;;9.13;100.00;93659.13;5033480;28;20239;-82
2024/01/19 05:34:00;;;;;;;0.45;0.45;;;;;;;9.41;100.00;93661.06;5033020;28;20200;-83
2024/01/19 05:36:27;;;;;;;0.45;0.45;;;;;;;9.37;100.00;93665.56;5033179;28;20619;-82
2024/01/19 05:38:54;;;;;;;0.20;0.20;;;;;;;9.12;100.00;93648.66;5033080;28;20212;-81
2024/01/19 05:41:21;;;;;;;0.22;0.22;;;;;;;9.24;100.00;93670.22;5032874;28;20211;-82
2024/01/19 05:43:48;;;;;;;0.20;0.20;;;;;;;9.32;100.00;93660.41;5033015;28;20208;-83
2024/01/19 05:46:15;;;;;;;0.50;0.50;;;;;;;9.27;100.00;93667.63;5033322;28;20222;-82
2024/01/19 05:48:42;;;;;;;0.45;0.40;;;;;;;9.18;100.00;93664.25;5032454;28;20251;-81
2024/01/19 05:51:13;;;;;;;0.20;0.20;;;;;;;9.11;100.00;93653.25;5032899;28;20250;-84
2024/01/19 05:53:40;;;;;;;0.38;0.38;;;;;;;9.24;100.00;93689.94;5033548;28;20736;-81
2024/01/19 05:56:07;;;;;;;0.38;0.38;;;;;;;9.10;100.00;93653.59;5033476;28;20289;-83
2024/01/19 05:58:34;;;;;;;0.22;0.22;;;;;;;9.04;100.00;93650.34;5033313;28;20212;-83
2024/01/19 06:01:02;;;;;;;0.20;0.20;;;;;;;9.24;100.00;93671.00;5033465;28;20231;-83
2024/01/19 06:03:30;;;;;;;0.20;0.20;;;;;;;9.29;100.00;93670.00;5032763;28;20262;-83
2024/01/19 06:05:57;;;;;;;0.25;0.25;;;;;;;9.37;100.00;93670.97;5032915;28;20266;-82
2024/01/19 06:08:25;;;;;;;0.20;0.20;;;;;;;9.54;100.00;93671.47;5032056;28;20216;-77
2024/01/19 06:10:52;;;;;;;0.22;0.22;;;;;;;9.42;100.00;93668.03;5032090;28;20239;-77
2024/01/19 06:13:19;;;;;;;0.20;0.20;;;;;;;9.70;100.00;93682.34;5032902;28;20208;-77
2024/01/19 06:15:46;;;;;;;0.40;0.40;;;;;;;9.65;100.00;93677.19;5032699;28;20270;-78
2024/01/19 06:18:12;;;;;;;0.20;0.20;;;;;;;9.37;100.00;93662.88;5037503;28;20208;-76
2024/01/19 06:20:41;;;;;;;27.85;1.45;;;;;;;9.51;100.00;93687.59;5032754;28;20243;-77
2024/01/19 06:23:09;;;;;;;0.20;0.20;;;;;;;9.38;100.00;93662.53;5031455;28;20212;-76
2024/01/19 06:25:40;;;;;;;0.22;0.22;;;;;;;9.48;100.00;93682.88;5032568;28;20205;-78
2024/01/19 06:28:07;;;;;;;0.22;0.22;;;;;;;9.69;100.00;93677.28;5032525;28;20201;-78
2024/01/19 06:30:34;;;;;;;0.93;0.80;;;;;;;9.60;100.00;93696.34;5032987;28;20231;-83
2024/01/19 06:33:01;;;;;;;0.55;0.55;;;;;;;9.54;100.00;93703.13;5032474;28;20240;-84
2024/01/19 06:35:28;;;;;;;7.78;0.77;;;;;;;9.38;100.00;93694.16;5032357;28;20207;-82
2024/01/19 06:37:55;;;;;;;0.40;0.40;;;;;;;9.41;100.00;93709.72;5031401;28;20200;-83
2024/01/19 06:40:22;;;;;;;0.30;0.30;;;;;;;9.68;100.00;93706.25;5027045;28;20204;-83
2024/01/19 06:42:50;;;;;;;0.73;0.73;;;;;;;9.56;100.00;93711.69;5032182;28;20212;-83
2024/01/19 06:45:17;;;;;;;0.30;0.30;;;;;;;8.99;100.00;93710.03;5032343;28;20212;-83
2024/01/19 06:47:44;;;;;;;0.68;0.55;;;;;;;9.13;100.00;93715.06;5031501;28;20220;-83
2024/01/19 06:50:11;;;;;;;0.20;0.20;;;;;;;9.12;100.00;93725.09;5031846;28;20715;-83
2024/01/19 06:52:39;;;;;;;0.20;0.20;;;;;;;8.82;100.00;93715.66;5031730;28;20220;-82
2024/01/19 06:55:07;;;;;;;0.30;0.30;;;;;;;9.13;100.00;93737.47;5031783;28;20286;-84
2024/01/19 06:57:34;;;;;;;0.30;0.30;;;;;;;9.08;100.00;93729.59;5030357;28;20204;-83
2024/01/19 07:00:03;;;;;;;0.60;0.45;;;;;;;9.26;100.00;93730.91;5031399;28;20211;-83
2024/01/19 07:02:30;;;;;;;0.47;0.47;;;;;;;9.65;100.00;93738.56;5014902;28;20287;-83
2024/01/19 07:04:58;;;;;;;0.90;0.90;;;;;;;9.96;100.00;93731.34;5031226;28;20204;-83
2024/01/19 07:07:24;;;;;;;0.30;0.30;;;;;;;10.24;100.00;93738.69;5031607;28;20560;-84
2024/01/19 07:09:51;;;;;;;0.30;0.30;;;;;;;10.21;100.00;93731.25;5032563;28;20619;-84
2024/01/19 07:12:19;;;;;;;0.60;0.60;;;;;;;10.32;100.00;93746.63;5030947;28;20250;-83
2024/01/19 07:14:46;;;;;;;0.50;0.50;;;;;;;10.43;100.00;93749.63;5031111;28;20219;-82
2024/01/19 07:17:14;;;;;;;0.20;0.20;;;;;;;10.16;100.00;93728.75;5031802;28;20231;-83
2024/01/19 07:19:41;;;;;;;0.20;0.20;;;;;;;10.04;100.00;93753.97;5032218;28;20201;-83
2024/01/19 07:22:08;;;;;;;0.20;0.20;;;;;;;10.28;100.00;93742.25;5033199;28;20222;-82
2024/01/19 07:24:35;;;;;;;0.75;0.73;;;;;;;10.26;100.00;93745.31;5032752;28;20215;-84
2024/01/19 07:27:02;;;;;;;0.30;0.30;;;;;;;10.53;100.00;93743.69;5032501;28;20208;-84
2024/01/19 07:29:30;;;;;;;1.95;0.70;;;;;;;10.37;100.00;93723.94;5033063;28;20549;-83
2024/01/19 07:31:57;;;;;;;0.95;0.90;;;;;;;10.53;100.00;93726.66;5032515;28;20590;-84
2024/01/19 07:34:28;;;;;;;0.75;0.75;;;;;;;10.92;100.00;93716.78;5032115;28;20676;-84
2024/01/19 07:36:55;;;;;;;0.20;0.20;;;;;;;11.12;100.00;93726.53;5031593;28;20212;-83
2024/01/19 07:39:23;;;;;;;2.80;0.50;;;;;;;11.56;100.00;93734.47;5031488;28;20219;-83
2024/01/19 07:41:51;;;;;;;0.60;0.60;;;;;;;11.74;100.00;93724.78;5031708;28;20295;-84
2024/01/19 07:44:18;;;;;;;0.30;0.30;;;;;;;12.07;98.83;93727.78;5031906;28;20212;-83
2024/01/19 07:46:45;;;;;;;1.25;1.05;;;;;;;11.80;96.63;93723.34;5031835;28;20232;-83
2024/01/19 07:49:12;;;;;;;0.73;0.73;;;;;;;11.20;99.34;93727.47;5032200;28;20282;-83
2024/01/19 07:51:41;;;;;;;0.68;0.68;;;;;;;11.45;100.00;93750.50;5032124;28;20610;-85
2024/01/19 07:54:07;;;;;;;2.25;2.05;;;;;;;11.36;98.44;93733.63;5031233;28;20223;-85
2024/01/19 07:56:34;;;;;;;0.90;0.90;;;;;;;11.44;99.85;93748.16;5032048;28;20212;-87
2024/01/19 07:59:01;;;;;;;0.20;0.20;;;;;;;11.64;99.06;93741.59;5034860;28;20205;-85
2024/01/19 08:01:28;;;;;;;2.67;1.15;;;;;;;11.53;98.85;93732.44;5033045;28;20216;-83
2024/01/19 08:03:54;;;;;;;0.57;0.57;;;;;;;11.88;99.15;93752.22;5035691;28;20208;-86
2024/01/19 08:06:21;;;;;;;1.30;1.00;;;;;;;11.30;98.29;93733.13;5035768;28;20209;-84
2024/01/19 08:08:49;;;;;;;0.45;0.45;;;;;;;11.58;98.39;93732.19;5031051;28;20235;-82
2024/01/19 08:11:16;;;;;;;2.13;0.82;;;;;;;11.71;99.83;93736.34;5030733;28;20227;-84
2024/01/19 08:13:43;;;;;;;2.22;1.00;;;;;;;12.26;97.41;93739.78;5031820;28;20220;-81
2024/01/19 08:16:10;;;;;;;1.65;1.27;;;;;;;12.74;94.96;93749.94;5031023;28;20216;-83
2024/01/19 08:18:36;;;;;;;3.35;0.73;;;;;;;12.52;91.88;93742.56;5030120;28;20573;-83
2024/01/19 08:21:04;;;;;;;1.08;0.98;;;;;;;12.20;92.34;93741.97;5026581;28;20636;-85
2024/01/19 08:23:32;;;;;;;1.10;1.05;;;;;;;12.66;94.32;93756.41;5018136;28;20216;-82
2024/01/19 08:26:00;;;;;;;1.60;0.70;;;;;;;12.82;93.04;93756.31;5031222;28;20212;-82
2024/01/19 08:28:27;;;;;;;2.08;1.67;;;;;;;12.56;93.58;93758.94;5030655;28;20204;-83
2024/01/19 08:30:54;;;;;;;0.30;0.30;;;;;;;12.67;94.02;93766.13;5031490;28;20212;-82
2024/01/19 08:33:21;;;;;;;3.03;1.85;;;;;;;13.27;91.17;93747.31;5030505;28;20247;-83
2024/01/19 08:35:49;;;;;;;1.52;0.98;;;;;;;12.98;88.84;93769.78;5031009;28;20315;-83
2024/01/19 08:38:16;;;;;;;0.47;0.47;;;;;;;13.43;89.39;93767.00;5034634;28;20242;-83
2024/01/19 08:40:44;;;;;;;1.13;1.05;;;;;;;13.59;86.60;93766.84;5034027;28;20219;-82
2024/01/19 08:43:12;;;;;;;0.93;0.82;;;;;;;13.35;86.13;93778.94;5035979;28;20560;-84
2024/01/19 08:45:39;;;;;;;0.10;0.10;;;;;;;12.87;86.68;93774.22;5033678;28;20208;-85
2024/01/19 08:48:06;;;;;;;0.30;0.30;;;;;;;12.84;87.06;93770.31;5034791;28;20260;-84
2024/01/19 08:50:33;;;;;;;0.52;0.50;;;;;;;12.98;87.29;93772.50;5033973;28;20204;-84
2024/01/19 08:53:00;;;;;;;0.25;0.25;;;;;;;13.15;86.66;93791.03;5033565;28;20324;-84
2024/01/19 08:55:27;;;;;;;0.20;0.20;;;;;;;13.63;86.10;93783.22;5031465;28;20676;-84
2024/01/19 08:57:54;;;;;;;1.67;1.58;;;;;;;13.49;85.45;93773.69;5032869;28;20255;-82
2024/01/19 09:00:22;;;;;;;0.65;0.65;;;;;;;13.83;87.86;93771.84;5030449;28;20204;-81
2024/01/19 09:02:49;;;;;;;0.20;0.20;;;;;;;13.74;86.24;93756.94;5034257;28;20208;-82
2024/01/19 09:05:16;;;;;;;0.20;0.20;;;;;;;13.66;85.90;93766.97;5033960;28;20239;-82
2024/01/19 09:07:43;;;;;;;0.50;0.50;;;;;;;13.40;86.16;93770.44;5034589;28;20208;-81
2024/01/19 09:10:10;;;;;;;0.25;0.25;;;;;;;13.95;85.68;93773.53;5033804;28;20216;-82
2024/01/19 09:12:37;;;;;;;0.40;0.40;;;;;;;13.76;84.26;93760.88;5033477;28;20224;-81
2024/01/19 09:15:05;;;;;;;0.50;0.50;;;;;;;14.34;84.70;93757.69;5033402;28;20219;-81
2024/01/19 09:17:33;;;;;;;0.40;0.40;;;;;;;13.42;85.28;93757.25;5031984;28;20650;-83
2024/01/19 09:20:02;;;;;;;0.20;0.20;;;;;;;13.57;86.77;93755.53;5032969;28;20212;-82
2024/01/19 09:22:29;;;;;;;0.50;0.50;;;;;;;14.10;84.51;93748.06;5033612;28;20212;-81
2024/01/19 09:24:56;;;;;;;1.50;1.23;;;;;;;14.32;84.82;93742.88;5033604;28;20208;-82
2024/01/19 09:27:23;;;;;;;3.92;1.30;;;;;;;13.81;84.32;93735.25;5033618;28;20715;-82
2024/01/19 09:29:50;;;;;;;0.40;0.40;;;;;;;13.96;82.91;93737.00;5032914;28;20728;-82
2024/01/19 09:32:17;;;;;;;0.73;0.50;;;;;;;14.06;83.03;93736.34;5032458;28;20600;-82
2024/01/19 09:34:46;;;;;;;1.15;0.80;;;;;;;14.45;83.09;93727.84;5033896;28;20204;-81
2024/01/19 09:37:13;;;;;;;1.35;0.50;;;;;;;14.64;83.91;93730.38;5033123;28;20296;-82
2024/01/19 09:39:40;;;;;;;4.10;1.67;;;;;;;14.33;81.77;93728.09;5034126;28;20220;-82
2024/01/19 09:42:12;;;;;;;1.15;0.80;;;;;;;13.67;83.09;93730.41;5033527;28;20208;-81
2024/01/19 09:44:45;;;;;;;0.20;0.20;;;;;;;13.51;83.99;93733.31;5033474;28;20220;-83
2024/01/19 09:47:22;;;;;;;0.20;0.20;;;;;;;13.23;83.59;93732.91;5032496;28;20255;-82
2024/01/19 09:50:04;;;;;;;0.82;0.82;;;;;;;12.88;86.09;93726.88;5033555;28;20215;-83
2024/01/19 09:52:44;;;;;;;0.30;0.30;;;;;;;13.02;86.36;93732.53;5033702;28;20262;-79
2024/01/19 09:55:12;;;;;;;0.63;0.63;;;;;;;13.24;86.42;93718.16;5033305;28;20216;-79
2024/01/19 09:57:45;;;;;;;0.75;0.75;;;;;;;13.47;85.03;93735.19;5033321;28;20286;-77
2024/01/19 10:00:14;;;;;;;1.63;1.30;;;;;;;13.77;84.75;93723.53;5032664;28;20243;-77
2024/01/19 10:02:45;;;;;;;4.50;0.88;;;;;;;13.74;84.30;93727.00;5040668;28;20211;-77
2024/01/19 10:05:14;;;;;;;0.52;0.52;;;;;;;14.22;84.15;93731.47;5015150;28;20216;-78
2024/01/19 10:07:42;;;;;;;0.70;0.70;;;;;;;13.70;83.51;93729.66;5033150;28;20216;-78
2024/01/19 10:10:10;;;;;;;1.20;1.00;;;;;;;14.21;82.84;93710.81;5032821;28;20209;-78
2024/01/19 10:12:38;;;;;;;1.15;1.13;;;;;;;13.76;82.86;93713.81;5032414;28;20232;-78
2024/01/19 10:15:07;;;;;;;0.32;0.32;;;;;;;13.52;84.40;93715.06;5035344;28;20247;-76
2024/01/19 10:17:35;;;;;;;0.30;0.30;;;;;;;13.69;85.00;93708.25;5032760;28;20287;-78
2024/01/19 10:20:03;;;;;;;1.75;0.82;;;;;;;13.62;84.15;93702.75;5032810;28;20635;-76
2024/01/19 10:22:32;;;;;;;1.58;1.45;;;;;;;13.80;83.88;93696.34;5032596;28;20612;-77
2024/01/19 10:25:01;;;;;;;0.40;0.40;;;;;;;13.78;83.30;93684.28;5033598;28;20577;-76
2024/01/19 10:27:41;;;;;;;0.70;0.70;;;;;;;13.89;82.81;93685.19;5032878;28;20232;-79
2024/01/19 10:30:10;;;;;;;1.25;0.50;;;;;;;13.88;84.26;93680.91;5032725;28;20576;-78
2024/01/19 10:32:39;;;;;;;0.50;0.50;;;;;;;14.08;83.29;93687.72;5036390;28;20267;-79
2024/01/19 10:35:08;;;;;;;4.53;2.03;;;;;;;13.64;83.62;93673.22;5032700;28;20609;-78
2024/01/19 10:37:36;;;;;;;0.57;0.57;;;;;;;13.48;84.95;93662.53;5032714;28;20716;-78
2024/01/19 10:40:20;;;;;;;0.20;0.20;;;;;;;13.52;85.41;93666.88;5032595;28;20231;-79
2024/01/19 10:42:48;;;;;;;0.30;0.30;;;;;;;13.45;85.40;93664.03;5032490;28;20208;-77
2024/01/19 10:45:17;;;;;;;0.20;0.20;;;;;;;13.34;85.76;93663.13;5031505;28;20216;-77
2024/01/19 10:47:44;;;;;;;12.85;0.68;;;;;;;13.74;84.93;93659.75;5032013;28;20278;-78
2024/01/19 10:50:14;;;;;;;2.85;2.05;;;;;;;14.03;84.37;93643.72;5032273;28;20273;-79
2024/01/19 10:52:43;;;;;;;0.63;0.43;;;;;;;14.01;83.80;93635.94;5031708;28;20264;-78
2024/01/19 10:55:11;;;;;;;1.67;0.70;;;;;;;13.77;83.20;93631.00;5032017;28;20632;-79
2024/01/19 10:57:38;;;;;;;0.80;0.80;;;;;;;13.30;85.13;93629.63;5031958;28;20288;-77
2024/01/19 11:00:25;;;;;;;0.50;0.50;;;;;;;13.32;86.02;93619.19;5030921;28;20213;-77
2024/01/19 11:02:54;;;;;;;2.45;1.20;;;;;;;13.59;86.10;93624.56;5032014;28;20597;-77
2024/01/19 11:05:22;;;;;;;0.40;0.40;;;;;;;14.17;84.19;93616.63;5032000;28;20294;-77
2024/01/19 11:07:52;;;;;;;1.40;1.30;;;;;;;14.77;82.16;93617.16;5032235;28;20212;-77
2024/01/19 11:10:20;;;;;;;0.40;0.40;;;;;;;14.87;78.63;93621.91;5031751;28;20580;-78
2024/01/19 11:12:51;;;;;;;1.55;1.10;;;;;;;14.62;79.65;93626.41;5031474;28;20260;-78
2024/01/19 11:15:27;;;;;;;1.40;1.33;;;;;;;14.84;78.13;93611.78;5031339;28;20216;-77
2024/01/19 11:17:58;;;;;;;0.40;0.40;;;;;;;15.21;78.01;93641.59;5031684;28;20203;-79
2024/01/19 11:20:25;;;;;;;3.33;2.17;;;;;;;15.55;74.54;93639.50;5033121;28;20211;-85
2024/01/19 11:22:54;;;;;;;2.92;1.60;;;;;;;15.52;74.64;93623.84;5036985;28;20204;-82
2024/01/19 11:25:29;;;;;;;0.25;0.25;;;;;;;15.63;73.93;93624.72;5035709;28;20212;-82
2024/01/19 11:28:07;;;;;;;0.40;0.40;;;;;;;15.68;74.27;93630.97;5035613;28;20199;-83
2024/01/19 11:30:45;;;;;;;0.90;0.90;;;;;;;15.27;73.47;93607.34;5038339;28;20587;-83
2024/01/19 11:33:19;;;;;;;0.82;0.82;;;;;;;15.49;74.23;93613.69;5022220;28;20590;-84
2024/01/19 11:35:48;;;;;;;0.82;0.82;;;;;;;15.58;73.85;93616.88;5032559;28;20212;-85